Time;durP1;ratioP1;P1;durP2;ratioP2;P2;SDS_P1;SDS_P2;PMS_P1;PMS_P2;Temp;Humidity;BMP_temperature;BMP_pressure;BME280_temperature;BME280_humidity;BME280_pressure;Samples;Min_cycle;Max_cycle;Signal;HPM_P1;HPM_P2
2022/02/07 00:01:07;;;;;;;12.18;0.52;;;;;;;1.85;86.51;100035.44;2063728;28;44224;-71
2022/02/07 00:02:10;;;;;;;8.82;0.90;;;;;;;1.87;87.09;100026.63;2079655;28;45004;-71
2022/02/07 00:03:18;;;;;;;7.40;0.35;;;;;;;1.88;86.46;100031.03;2069894;28;44651;-71
2022/02/07 00:04:25;;;;;;;10.20;0.60;;;;;;;1.86;86.70;100029.28;2064050;28;34165;-71
2022/02/07 00:05:29;;;;;;;10.73;0.50;;;;;;;1.87;86.88;100031.91;2063821;28;43711;-71
2022/02/07 00:06:31;;;;;;;10.10;0.50;;;;;;;1.88;86.23;100028.41;2063887;28;45395;-70
2022/02/07 00:07:33;;;;;;;12.15;0.60;;;;;;;1.88;85.90;100025.75;2071167;28;46383;-71
2022/02/07 00:08:35;;;;;;;11.95;0.80;;;;;;;1.88;85.85;100025.75;2079690;28;42915;-70
2022/02/07 00:09:37;;;;;;;6.40;0.38;;;;;;;1.87;86.39;100024.00;2078711;28;44264;-71
2022/02/07 00:10:41;;;;;;;12.73;0.65;;;;;;;1.82;86.65;100028.41;2063529;28;44466;-71
2022/02/07 00:11:42;;;;;;;6.15;0.45;;;;;;;1.83;87.06;100027.53;2063303;28;44957;-72
2022/02/07 00:12:47;;;;;;;9.98;1.02;;;;;;;1.85;86.85;100036.31;2063968;28;44806;-71
2022/02/07 00:13:48;;;;;;;10.20;0.60;;;;;;;1.87;86.83;100042.47;2063943;28;41875;-71
2022/02/07 00:14:53;;;;;;;8.48;0.50;;;;;;;1.90;87.40;100053.03;2063817;28;43914;-71
2022/02/07 00:15:57;;;;;;;9.68;0.70;;;;;;;1.89;86.95;100056.53;2063893;28;44862;-71
2022/02/07 00:17:02;;;;;;;8.88;0.30;;;;;;;1.86;87.51;100051.25;2063363;28;43119;-72
2022/02/07 00:18:06;;;;;;;12.57;1.05;;;;;;;1.85;87.95;100046.00;2063663;28;44748;-71
2022/02/07 00:19:11;;;;;;;9.30;0.50;;;;;;;1.83;88.27;100046.00;2078788;28;44677;-71
2022/02/07 00:20:17;;;;;;;10.95;0.90;;;;;;;1.80;88.23;100053.91;2077502;28;44901;-71
2022/02/07 00:21:19;;;;;;;7.43;0.50;;;;;;;1.75;89.16;100052.16;2079460;28;44298;-71
2022/02/07 00:22:21;;;;;;;11.20;0.43;;;;;;;1.71;89.13;100056.56;2078214;28;41091;-71
2022/02/07 00:23:23;;;;;;;12.57;0.70;;;;;;;1.67;89.72;100058.34;2063818;28;46341;-71
2022/02/07 00:24:25;;;;;;;12.85;1.00;;;;;;;1.64;89.62;100055.69;2063376;28;43151;-71
2022/02/07 00:25:27;;;;;;;11.55;0.73;;;;;;;1.59;89.68;100068.00;2062798;28;45493;-71
2022/02/07 00:26:29;;;;;;;14.00;0.65;;;;;;;1.57;90.07;100074.19;2070542;28;45147;-72
2022/02/07 00:27:30;;;;;;;15.20;0.90;;;;;;;1.52;90.44;100072.41;2079929;28;36271;-71
2022/02/07 00:28:34;;;;;;;13.27;0.93;;;;;;;1.49;90.26;100080.34;2071068;28;45451;-71
2022/02/07 00:29:36;;;;;;;9.80;0.43;;;;;;;1.50;90.26;100089.13;2063196;28;45707;-71
2022/02/07 00:30:39;;;;;;;15.88;0.50;;;;;;;1.47;90.55;100090.00;2064393;28;20058;-70
2022/02/07 00:31:40;;;;;;;8.30;0.85;;;;;;;1.51;90.83;100101.44;2063865;28;45216;-71
2022/02/07 00:32:43;;;;;;;7.85;0.57;;;;;;;1.54;89.98;100096.13;2063710;28;43466;-70
2022/02/07 00:33:44;;;;;;;7.47;0.45;;;;;;;1.57;90.54;100100.56;2063488;28;44453;-71
2022/02/07 00:34:46;;;;;;;9.63;0.85;;;;;;;1.61;89.93;100103.19;2063792;28;44469;-71
2022/02/07 00:35:48;;;;;;;10.85;0.70;;;;;;;1.64;89.75;100103.19;2079382;28;44219;-71
2022/02/07 00:36:49;;;;;;;7.82;0.77;;;;;;;1.65;90.21;100093.50;2079319;28;28526;-71
2022/02/07 00:37:55;;;;;;;13.77;0.60;;;;;;;1.65;90.01;100104.97;2063076;28;43051;-71
2022/02/07 00:39:06;;;;;;;10.60;0.82;;;;;;;1.66;90.36;100105.81;2062478;28;45803;-71
2022/02/07 00:40:29;;;;;;;10.63;0.50;;;;;;;1.67;90.28;100107.56;2063106;28;45922;-71
2022/02/07 00:41:56;;;;;;;10.18;0.70;;;;;;;1.64;90.09;100113.75;2064067;28;45652;-71
2022/02/07 00:43:02;;;;;;;8.50;0.45;;;;;;;1.57;89.95;100111.09;2063569;28;45138;-71
2022/02/07 00:44:12;;;;;;;10.23;0.60;;;;;;;1.56;90.07;100114.63;2064829;28;20046;-71
2022/02/07 00:45:25;;;;;;;10.77;0.60;;;;;;;1.58;91.08;100107.56;2064451;28;20323;-71
2022/02/07 00:46:35;;;;;;;12.25;0.57;;;;;;;1.61;90.66;100115.50;2063799;28;44275;-71
2022/02/07 00:47:38;;;;;;;7.85;0.57;;;;;;;1.59;90.26;100117.25;2064289;28;20184;-71
2022/02/07 00:48:41;;;;;;;9.43;0.85;;;;;;;1.60;90.63;100121.63;2072030;28;21118;-71
2022/02/07 00:49:44;;;;;;;9.95;0.65;;;;;;;1.59;90.51;100130.44;2063425;28;20130;-71
2022/02/07 00:50:46;;;;;;;14.68;0.68;;;;;;;1.52;90.55;100125.16;2047584;28;45458;-71
2022/02/07 00:51:48;;;;;;;9.00;0.75;;;;;;;1.50;90.33;100134.81;2061960;28;48106;-71
2022/02/07 00:52:49;;;;;;;10.57;0.57;;;;;;;1.52;90.34;100140.97;2071412;28;20880;-71
2022/02/07 00:53:54;;;;;;;11.30;0.68;;;;;;;1.51;90.67;100148.91;2063211;28;21003;-71
2022/02/07 00:54:55;;;;;;;10.80;0.70;;;;;;;1.51;90.78;100149.78;2054660;28;45663;-71
2022/02/07 00:55:57;;;;;;;7.57;0.65;;;;;;;1.51;90.90;100155.06;2072213;28;20160;-71
2022/02/07 00:57:02;;;;;;;7.45;0.50;;;;;;;1.56;91.23;100151.53;2070991;28;20050;-71
2022/02/07 00:58:07;;;;;;;10.23;0.50;;;;;;;1.60;90.89;100153.28;2072457;28;20057;-71
2022/02/07 00:59:10;;;;;;;9.10;0.63;;;;;;;1.61;90.59;100150.66;2079699;28;20855;-71
2022/02/07 01:00:13;;;;;;;6.88;0.40;;;;;;;1.64;90.44;100157.72;2063807;28;20051;-71
2022/02/07 01:01:19;;;;;;;9.68;0.50;;;;;;;1.64;90.74;100157.72;2072597;28;21151;-71
2022/02/07 01:02:27;;;;;;;9.75;0.80;;;;;;;1.64;90.16;100171.78;2062584;28;20086;-71
2022/02/07 01:03:29;;;;;;;9.48;0.60;;;;;;;1.64;90.56;100174.44;2057026;28;20181;-69
2022/02/07 01:04:33;;;;;;;8.40;0.60;;;;;;;1.66;90.93;100172.66;2079760;28;20127;-71
2022/02/07 01:05:41;;;;;;;6.30;0.70;;;;;;;1.70;91.07;100181.47;2070880;28;20122;-71
2022/02/07 01:06:52;;;;;;;9.05;0.40;;;;;;;1.71;90.96;100186.75;2063424;28;20050;-71
2022/02/07 01:08:05;;;;;;;8.93;0.38;;;;;;;1.74;90.47;100193.78;2064538;28;20039;-71
2022/02/07 01:09:14;;;;;;;9.85;0.70;;;;;;;1.77;90.88;100193.78;2063786;28;21063;-71
2022/02/07 01:10:27;;;;;;;5.88;0.40;;;;;;;1.79;90.52;100196.44;2065721;28;20092;-71
2022/02/07 01:11:48;;;;;;;10.05;0.47;;;;;;;1.80;90.24;100193.78;2071175;28;20049;-71
2022/02/07 01:14:22;;;;;;;11.32;0.57;;;;;;;1.88;90.04;100202.59;2056654;28;20831;-71
2022/02/07 01:20:42;;;;;;;5.78;0.20;;;;;;;1.88;90.22;100221.09;2062421;28;44288;-71
2022/02/07 01:48:56;;;;;;;7.32;0.68;;;;;;;2.17;91.25;100333.75;2055647;28;20795;-72
2022/02/07 01:50:18;;;;;;;10.07;0.35;;;;;;;2.11;90.69;100325.81;2071456;28;20133;-72
2022/02/07 01:52:50;;;;;;;6.90;0.50;;;;;;;2.14;91.31;100335.53;2072812;28;20924;-72
2022/02/07 01:55:13;;;;;;;11.00;0.60;;;;;;;2.05;91.40;100341.66;2071458;28;20176;-72
2022/02/07 01:56:15;;;;;;;12.70;0.50;;;;;;;2.05;91.73;100339.91;2063080;28;20046;-72
2022/02/07 01:57:23;;;;;;;7.93;0.40;;;;;;;2.01;92.10;100342.50;2062793;28;20039;-72
2022/02/07 01:58:26;;;;;;;10.98;1.00;;;;;;;1.98;91.81;100342.53;2055687;28;20090;-72
2022/02/07 01:59:29;;;;;;;10.85;0.57;;;;;;;1.97;92.45;100352.19;2063168;28;20042;-71
2022/02/07 02:00:31;;;;;;;10.30;0.80;;;;;;;1.97;93.11;100351.31;2063906;28;20548;-71
2022/02/07 02:01:37;;;;;;;9.93;0.50;;;;;;;1.98;92.83;100358.38;2063240;28;20030;-71
2022/02/07 02:02:39;;;;;;;7.60;0.45;;;;;;;1.96;93.27;100358.34;2079504;28;20948;-71
2022/02/07 02:03:41;;;;;;;7.32;0.30;;;;;;;1.97;92.28;100354.81;2070559;28;20061;-71
2022/02/07 02:04:44;;;;;;;8.48;0.40;;;;;;;2.01;92.24;100353.06;2063777;28;20055;-72
2022/02/07 02:05:55;;;;;;;10.63;0.70;;;;;;;2.05;92.06;100353.09;2063028;28;20043;-71
2022/02/07 02:07:05;;;;;;;;;;;;;;;2.04;92.42;100361.88;2056542;28;20145;-71
2022/02/07 02:08:15;;;;;;;10.45;0.55;;;;;;;2.06;91.93;100361.88;2062780;28;19918;-71
2022/02/07 02:09:20;;;;;;;11.20;0.52;;;;;;;2.05;91.78;100357.50;2063156;28;20054;-72
2022/02/07 02:10:22;;;;;;;8.95;0.85;;;;;;;2.03;92.61;100359.25;2062482;28;43117;-71
2022/02/07 02:11:26;;;;;;;10.23;0.60;;;;;;;2.03;92.01;100364.53;2079551;28;20189;-72
2022/02/07 02:12:34;;;;;;;13.43;0.90;;;;;;;2.04;92.48;100371.56;2070561;28;20933;-71
2022/02/07 02:13:55;;;;;;;13.90;1.10;;;;;;;2.08;91.80;100368.94;2056150;28;20786;-71
2022/02/07 02:15:20;;;;;;;16.38;1.02;;;;;;;2.08;91.63;100374.22;2058338;28;20043;-71
2022/02/07 02:16:34;;;;;;;15.32;1.50;;;;;;;2.14;91.96;100380.41;2062818;28;42785;-71
2022/02/07 02:20:34;;;;;;;19.60;1.23;;;;;;;2.11;91.56;100383.91;2071223;28;20042;-71
2022/02/07 02:37:42;;;;;;;21.42;1.63;;;;;;;2.28;90.99;100431.50;2062912;28;20051;-71
2022/02/07 02:45:36;;;;;;;15.02;0.77;;;;;;;2.56;90.07;100450.06;2062914;28;20054;-71
2022/02/07 02:46:49;;;;;;;14.98;0.88;;;;;;;2.61;88.94;100459.75;2073427;28;20944;-71
2022/02/07 02:47:55;;;;;;;13.32;0.98;;;;;;;2.61;89.59;100464.16;2068865;28;20203;-71
2022/02/07 02:49:05;;;;;;;15.10;1.10;;;;;;;2.63;89.10;100463.28;2072390;28;20148;-71
2022/02/07 02:50:26;;;;;;;15.73;1.20;;;;;;;2.65;89.29;100472.09;2078690;28;20113;-71
2022/02/07 02:51:30;;;;;;;11.35;1.23;;;;;;;2.65;89.60;100466.78;2062312;28;20047;-71
2022/02/07 02:52:33;;;;;;;12.02;1.00;;;;;;;2.71;89.08;100480.91;2062848;28;20863;-71
2022/02/07 02:53:34;;;;;;;13.95;1.10;;;;;;;2.76;88.77;100473.88;2062760;28;20047;-71
2022/02/07 02:54:36;;;;;;;24.75;1.30;;;;;;;2.78;89.07;100477.38;2054940;28;20265;-71
2022/02/07 02:55:42;;;;;;;13.38;1.13;;;;;;;2.85;88.33;100484.44;2063007;28;20042;-71
2022/02/07 02:56:44;;;;;;;14.27;1.35;;;;;;;2.86;88.05;100462.44;2062283;28;20039;-71
2022/02/07 02:57:46;;;;;;;14.30;0.88;;;;;;;2.91;88.22;100495.06;2047641;28;20048;-71
2022/02/07 02:58:50;;;;;;;11.70;1.08;;;;;;;3.00;87.56;100492.41;2063234;28;20035;-71
2022/02/07 02:59:52;;;;;;;10.90;1.23;;;;;;;3.05;87.79;100502.97;2062506;28;20074;-71
2022/02/07 03:00:55;;;;;;;14.13;1.00;;;;;;;3.08;87.14;100497.69;2054745;28;21022;-71
2022/02/07 03:02:21;;;;;;;16.48;0.82;;;;;;;3.01;86.91;100506.50;2062777;28;20121;-71
2022/02/07 03:03:23;;;;;;;17.80;1.05;;;;;;;2.98;86.95;100523.25;2059888;28;20047;-72
2022/02/07 03:04:25;;;;;;;14.80;1.15;;;;;;;2.99;86.76;100519.72;2070682;28;20059;-71
2022/02/07 03:05:27;;;;;;;10.20;1.10;;;;;;;2.97;86.45;100518.84;2071141;28;29810;-72
2022/02/07 03:06:28;;;;;;;16.30;1.23;;;;;;;2.94;87.01;100526.75;2061730;28;44522;-72
2022/02/07 03:07:30;;;;;;;14.90;0.88;;;;;;;2.92;86.71;100525.00;2055002;28;21099;-71
2022/02/07 03:08:33;;;;;;;17.23;1.25;;;;;;;2.94;87.75;100539.09;2054761;28;20062;-71
2022/02/07 03:09:45;;;;;;;19.17;1.35;;;;;;;2.93;87.05;100546.16;2070677;28;29634;-71
2022/02/07 03:11:53;;;;;;;13.43;1.00;;;;;;;2.91;87.16;100547.94;2063620;28;20046;-71
2022/02/07 03:13:09;;;;;;;13.43;1.00;;;;;;;2.91;88.21;100552.31;2061361;28;20571;-70
2022/02/07 03:14:20;;;;;;;19.02;1.77;;;;;;;2.90;87.61;100543.50;2063900;28;36748;-71
2022/02/07 03:16:50;;;;;;;9.07;0.80;;;;;;;2.82;87.13;100553.22;2054904;28;20043;-70
2022/02/07 03:17:52;;;;;;;7.90;1.00;;;;;;;2.84;87.22;100559.38;2054982;28;20043;-72
2022/02/07 03:18:54;;;;;;;10.45;0.80;;;;;;;2.84;87.39;100567.31;2061903;28;41913;-73
2022/02/07 03:19:55;;;;;;;7.38;0.52;;;;;;;2.80;86.47;100561.13;2063069;28;20047;-71
2022/02/07 03:20:58;;;;;;;13.02;0.77;;;;;;;2.83;86.15;100565.53;2046750;28;33008;-71
2022/02/07 03:22:00;;;;;;;11.80;0.60;;;;;;;2.81;86.80;100564.66;2054484;28;22825;-71
2022/02/07 03:23:03;;;;;;;10.27;0.93;;;;;;;2.78;87.19;100577.84;2061702;28;41961;-71
2022/02/07 03:24:07;;;;;;;15.32;1.33;;;;;;;2.73;86.84;100574.31;2062983;28;20113;-71
2022/02/07 03:25:12;;;;;;;11.70;1.02;;;;;;;2.70;87.25;100584.88;2055413;28;20053;-71
2022/02/07 03:26:21;;;;;;;9.35;0.55;;;;;;;2.71;87.73;100576.06;2056238;28;20055;-71
2022/02/07 03:27:27;;;;;;;10.18;0.60;;;;;;;2.73;87.50;100590.16;2063116;28;20039;-71
2022/02/07 03:28:33;;;;;;;12.07;0.70;;;;;;;2.66;87.72;100590.16;2062803;28;20035;-71
2022/02/07 03:29:36;;;;;;;11.00;0.70;;;;;;;2.66;87.47;100594.56;2062802;28;20145;-71
2022/02/07 03:30:44;;;;;;;11.77;0.77;;;;;;;2.64;87.29;100604.25;2063063;28;20169;-71
2022/02/07 03:31:46;;;;;;;17.33;0.90;;;;;;;2.63;87.57;100611.28;2055277;28;20143;-71
2022/02/07 03:32:55;;;;;;;13.60;1.17;;;;;;;2.62;88.41;100617.47;2062358;28;20047;-71
2022/02/07 03:33:57;;;;;;;10.95;1.00;;;;;;;2.59;88.51;100614.78;2062059;28;42859;-71
2022/02/07 03:34:59;;;;;;;14.55;0.82;;;;;;;2.57;88.61;100611.25;2063253;28;20035;-71
2022/02/07 03:36:00;;;;;;;13.10;0.52;;;;;;;2.59;88.82;100620.06;2070776;28;20909;-70
2022/02/07 03:37:02;;;;;;;23.77;1.65;;;;;;;2.59;87.51;100625.38;2070439;28;20090;-71
2022/02/07 03:38:08;;;;;;;15.48;1.33;;;;;;;2.59;87.85;100620.06;2062484;28;20822;-71
2022/02/07 03:39:10;;;;;;;14.30;0.90;;;;;;;2.58;88.05;100636.78;2070866;28;20051;-71
2022/02/07 03:40:13;;;;;;;11.85;0.95;;;;;;;2.57;88.34;100640.34;2078995;28;20038;-71
2022/02/07 03:41:20;;;;;;;15.82;1.55;;;;;;;2.54;87.99;100635.03;2054677;28;20043;-70
2022/02/07 03:42:21;;;;;;;11.57;1.05;;;;;;;2.58;88.08;100638.56;2055639;28;20976;-71
2022/02/07 03:43:43;;;;;;;12.05;0.95;;;;;;;2.63;87.75;100648.28;2063037;28;20051;-71
2022/02/07 03:44:44;;;;;;;15.63;2.17;;;;;;;2.61;88.02;100654.44;2064011;28;20050;-71
2022/02/07 03:45:46;;;;;;;18.05;1.23;;;;;;;2.58;87.95;100655.28;2064189;28;20945;-71
2022/02/07 03:46:51;;;;;;;13.70;0.98;;;;;;;2.57;88.02;100663.25;2064561;28;20127;-70
2022/02/07 03:47:57;;;;;;;17.75;1.40;;;;;;;2.57;87.68;100668.53;2079879;28;20057;-70
2022/02/07 03:49:06;;;;;;;13.02;0.93;;;;;;;2.62;88.04;100672.97;2063207;28;20109;-71
2022/02/07 03:50:11;;;;;;;14.80;1.10;;;;;;;2.63;87.80;100672.06;2048986;28;20044;-71
2022/02/07 03:51:19;;;;;;;19.30;1.30;;;;;;;2.69;87.88;100684.44;2065245;28;20058;-71
2022/02/07 03:52:21;;;;;;;10.93;1.15;;;;;;;2.72;87.82;100683.56;2071430;28;20034;-71
2022/02/07 03:53:23;;;;;;;21.38;1.65;;;;;;;2.73;88.08;100687.97;2079644;28;43264;-71
2022/02/07 03:54:32;;;;;;;14.38;1.10;;;;;;;2.72;87.86;100695.03;2078724;28;20925;-70
2022/02/07 03:55:38;;;;;;;16.60;1.17;;;;;;;2.77;87.64;100700.34;2063924;28;20117;-70
2022/02/07 03:56:44;;;;;;;11.98;1.20;;;;;;;2.74;87.91;100700.31;2064448;28;20884;-70
2022/02/07 03:57:49;;;;;;;12.93;1.10;;;;;;;2.76;87.94;100711.78;2063393;28;20042;-71
2022/02/07 03:58:51;;;;;;;17.35;1.60;;;;;;;2.77;87.52;100710.94;2064689;28;30781;-71
2022/02/07 03:59:54;;;;;;;17.10;1.42;;;;;;;2.75;87.71;100710.03;2080442;28;20030;-71
2022/02/07 04:00:57;;;;;;;16.67;2.00;;;;;;;2.82;87.92;100717.13;2071568;28;20089;-71
2022/02/07 04:02:09;;;;;;;16.05;1.48;;;;;;;2.85;87.77;100719.75;2057688;28;20137;-71
2022/02/07 04:03:14;;;;;;;16.10;1.30;;;;;;;2.83;87.82;100719.75;2064124;28;20924;-71
2022/02/07 04:04:21;;;;;;;17.17;1.73;;;;;;;2.84;87.56;100731.22;2057147;28;20048;-70
2022/02/07 04:06:42;;;;;;;19.05;1.77;;;;;;;2.94;87.50;100740.09;2061856;28;20213;-70
2022/02/07 04:07:53;;;;;;;24.27;2.47;;;;;;;2.94;87.83;100742.72;2059968;28;20050;-71
2022/02/07 04:09:02;;;;;;;15.48;1.55;;;;;;;2.91;88.04;100751.53;2056134;28;20776;-70
2022/02/07 04:10:13;;;;;;;15.23;1.67;;;;;;;2.91;88.31;100759.47;2074069;28;20372;-71
2022/02/07 04:11:22;;;;;;;17.98;1.83;;;;;;;2.93;88.76;100752.44;2063353;28;20046;-71
2022/02/07 04:12:28;;;;;;;18.23;1.50;;;;;;;2.95;89.20;100758.59;2066958;28;20055;-71
2022/02/07 04:13:37;;;;;;;21.95;1.67;;;;;;;2.94;89.00;100766.53;2071257;28;20914;-71
2022/02/07 04:14:42;;;;;;;17.10;1.80;;;;;;;2.93;89.23;100773.59;2064843;28;20046;-71
2022/02/07 04:15:51;;;;;;;16.10;1.38;;;;;;;2.93;89.80;100770.94;2063117;28;20237;-71
2022/02/07 04:16:53;;;;;;;16.13;1.65;;;;;;;2.93;89.35;100776.22;2057089;28;20177;-71
2022/02/07 04:18:04;;;;;;;20.02;3.47;;;;;;;2.95;89.69;100777.13;2064898;28;20070;-71
2022/02/07 04:19:17;;;;;;;16.80;1.67;;;;;;;3.03;89.12;100786.00;2063227;28;20945;-71
2022/02/07 04:20:20;;;;;;;19.80;3.63;;;;;;;2.96;89.37;100788.56;2064217;28;20020;-71
2022/02/07 04:21:27;;;;;;;15.23;2.65;;;;;;;2.98;89.29;100771.84;2063665;28;20053;-70
2022/02/07 04:22:30;;;;;;;14.35;1.48;;;;;;;2.98;88.89;100782.44;2055809;28;20178;-71
2022/02/07 04:24:04;;;;;;;16.65;1.50;;;;;;;2.97;89.03;100785.94;2031473;29;20817;-71
2022/02/07 04:25:10;;;;;;;11.85;1.10;;;;;;;3.06;87.71;100788.63;2050069;28;20099;-71
2022/02/07 04:26:21;;;;;;;13.10;1.30;;;;;;;3.02;87.56;100802.72;2056998;28;20035;-73
2022/02/07 04:27:22;;;;;;;8.82;1.15;;;;;;;3.03;88.66;100801.84;2063772;28;20050;-71
2022/02/07 04:28:25;;;;;;;11.70;1.10;;;;;;;3.02;87.44;100818.59;2056113;28;20047;-71
2022/02/07 04:29:27;;;;;;;19.83;1.67;;;;;;;2.99;88.14;100815.91;2063858;28;20814;-71
2022/02/07 04:30:29;;;;;;;9.18;0.88;;;;;;;2.98;87.98;100814.16;2072171;28;20816;-71
2022/02/07 04:31:31;;;;;;;10.15;0.80;;;;;;;2.97;87.78;100817.66;2063785;28;21059;-70
2022/02/07 04:32:33;;;;;;;10.07;0.95;;;;;;;3.00;87.91;100815.06;2062753;28;44165;-71
2022/02/07 04:33:34;;;;;;;15.63;1.90;;;;;;;3.03;88.86;100819.47;2071143;28;36519;-71
2022/02/07 04:34:38;;;;;;;15.25;1.25;;;;;;;2.98;88.80;100816.81;2071540;28;29882;-71
2022/02/07 04:35:41;;;;;;;17.08;1.00;;;;;;;2.92;88.42;100827.34;2055291;28;20078;-71
2022/02/07 04:36:50;;;;;;;18.48;1.20;;;;;;;2.94;89.37;100825.56;2063220;28;39383;-71
2022/02/07 04:37:52;;;;;;;15.75;1.55;;;;;;;2.90;88.36;100821.16;2069024;28;44208;-71
2022/02/07 04:38:55;;;;;;;13.48;1.42;;;;;;;2.88;89.13;100828.19;2071886;28;20124;-71
2022/02/07 04:39:57;;;;;;;12.25;0.88;;;;;;;2.80;89.31;100835.19;2071695;28;20050;-70
2022/02/07 04:41:11;;;;;;;18.15;1.48;;;;;;;2.82;89.75;100841.38;2055506;28;20054;-71
2022/02/07 04:42:15;;;;;;;14.77;1.33;;;;;;;2.79;89.82;100849.28;2064664;28;20043;-72
2022/02/07 04:43:18;;;;;;;17.77;1.52;;;;;;;2.76;89.41;100855.41;2062942;28;46049;-71
2022/02/07 04:44:23;;;;;;;17.20;1.25;;;;;;;2.72;89.62;100858.03;2055376;28;20043;-70
2022/02/07 04:52:43;;;;;;;15.38;1.55;;;;;;;2.53;90.07;100883.44;2062199;28;20792;-71
2022/02/07 04:58:53;;;;;;;15.93;1.50;;;;;;;2.56;90.46;100915.19;2058380;28;20039;-71
2022/02/07 05:01:51;;;;;;;16.83;1.40;;;;;;;2.57;90.83;100920.47;2062962;28;20133;-71
2022/02/07 05:03:08;;;;;;;17.65;1.58;;;;;;;2.54;90.29;100923.09;2056304;28;20043;-71
2022/02/07 05:04:22;;;;;;;14.27;1.55;;;;;;;2.58;90.05;100930.16;2060715;28;20058;-72
2022/02/07 05:15:01;;;;;;;14.35;1.40;;;;;;;2.68;90.33;100957.59;2038509;29;20236;-72
2022/02/07 05:16:09;;;;;;;13.75;1.30;;;;;;;2.67;89.85;100963.72;2050761;28;20137;-71
2022/02/07 05:17:13;;;;;;;13.88;1.23;;;;;;;2.70;89.94;100957.59;2071823;28;20038;-71
2022/02/07 05:18:35;;;;;;;12.95;1.08;;;;;;;2.71;90.46;100965.56;2060208;28;20052;-71
2022/02/07 05:19:44;;;;;;;14.43;1.20;;;;;;;2.67;90.27;100971.66;2056206;28;20039;-72
2022/02/07 05:21:14;;;;;;;14.50;1.13;;;;;;;2.68;89.99;100973.44;2071488;28;20089;-71
2022/02/07 05:22:24;;;;;;;14.13;1.10;;;;;;;2.67;90.04;100983.16;2070717;28;20042;-71
2022/02/07 05:23:32;;;;;;;21.15;1.60;;;;;;;2.64;90.15;100987.50;2071635;28;20041;-71
2022/02/07 05:24:49;;;;;;;11.88;0.93;;;;;;;2.65;90.45;100994.56;2067655;28;20027;-71
2022/02/07 05:26:11;;;;;;;18.38;1.75;;;;;;;2.63;90.54;101007.75;2056408;28;20870;-71
2022/02/07 05:27:42;;;;;;;17.55;1.58;;;;;;;2.66;89.88;101006.91;2055206;28;20058;-71
2022/02/07 05:29:07;;;;;;;19.73;1.50;;;;;;;2.61;90.10;101011.25;2056392;28;20065;-72
2022/02/07 05:30:34;;;;;;;22.40;1.60;;;;;;;2.55;90.71;101016.47;2033730;28;20048;-71
2022/02/07 05:31:53;;;;;;;22.65;1.88;;;;;;;2.56;90.66;101019.13;2060461;28;20035;-71
2022/02/07 05:33:20;;;;;;;14.63;1.45;;;;;;;2.53;90.64;101028.78;2054129;28;20047;-71
2022/02/07 05:34:42;;;;;;;24.27;2.13;;;;;;;2.50;90.96;101034.06;2056251;28;20182;-71
2022/02/07 05:36:09;;;;;;;18.42;1.60;;;;;;;2.43;90.85;101030.44;2055154;28;20106;-71
2022/02/07 05:37:29;;;;;;;22.75;2.25;;;;;;;2.47;91.13;101043.69;2050510;28;20753;-71
2022/02/07 05:38:46;;;;;;;21.13;1.63;;;;;;;2.49;90.91;101046.34;2056835;28;20035;-71
2022/02/07 05:40:06;;;;;;;19.98;1.50;;;;;;;2.47;90.90;101046.34;2060047;28;20039;-71
2022/02/07 05:41:23;;;;;;;18.02;1.63;;;;;;;2.54;91.03;101047.31;2071463;28;20074;-72
2022/02/07 05:42:48;;;;;;;18.08;1.88;;;;;;;2.54;90.78;101059.63;2068096;28;20189;-71
2022/02/07 05:44:02;;;;;;;24.50;2.20;;;;;;;2.49;90.48;101056.94;2080002;28;20041;-71
2022/02/07 05:45:28;;;;;;;21.70;1.92;;;;;;;2.57;90.57;101057.03;2068360;28;21034;-70
2022/02/07 05:47:00;;;;;;;18.70;1.77;;;;;;;2.63;90.65;101060.63;2063433;28;20195;-71
2022/02/07 05:48:31;;;;;;;;;;;;;;;2.63;90.63;101071.19;2063365;28;20141;-71
2022/02/07 05:49:53;;;;;;;21.65;2.17;;;;;;;2.63;90.02;101081.75;2060551;28;20891;-73
2022/02/07 05:51:13;;;;;;;23.60;2.07;;;;;;;2.63;90.15;101086.16;2055711;28;21056;-71
2022/02/07 05:52:25;;;;;;;18.73;1.40;;;;;;;2.77;90.17;101084.56;2056389;28;20283;-72
2022/02/07 05:53:27;;;;;;;25.63;2.05;;;;;;;2.80;89.01;101094.28;2062601;28;29792;-71
2022/02/07 05:54:45;;;;;;;30.23;2.78;;;;;;;2.82;88.39;101090.81;2055114;28;20109;-71
2022/02/07 05:56:06;;;;;;;22.33;1.98;;;;;;;2.77;88.87;101089.88;2057683;28;20047;-71
2022/02/07 05:57:13;;;;;;;23.05;2.17;;;;;;;2.95;87.61;101090.94;2062747;28;20212;-71
2022/02/07 05:58:24;;;;;;;18.90;1.65;;;;;;;2.93;87.63;101104.16;2056406;28;20031;-71
2022/02/07 05:59:51;;;;;;;25.65;1.92;;;;;;;2.95;87.64;101094.47;2055235;28;21092;-71
2022/02/07 06:01:13;;;;;;;18.13;2.20;;;;;;;3.07;87.33;101104.31;2042063;28;20066;-71
2022/02/07 06:02:19;;;;;;;17.45;1.80;;;;;;;2.98;87.47;101112.13;2054814;28;20055;-71
2022/02/07 06:03:26;;;;;;;19.80;2.22;;;;;;;2.94;87.99;101112.97;2056305;28;20930;-72
2022/02/07 06:04:40;;;;;;;18.17;1.92;;;;;;;2.92;88.04;101120.88;2055518;28;20051;-71
2022/02/07 06:05:45;;;;;;;25.42;2.38;;;;;;;2.92;88.28;101120.00;2055237;28;20973;-72
2022/02/07 06:06:56;;;;;;;15.55;2.22;;;;;;;2.99;87.05;101128.00;2070602;28;20034;-72
2022/02/07 06:07:59;;;;;;;15.38;1.63;;;;;;;2.99;87.21;101138.59;2070373;28;20071;-72
2022/02/07 06:09:03;;;;;;;22.33;2.28;;;;;;;2.92;87.51;101135.84;2074734;28;20045;-71
2022/02/07 06:10:06;;;;;;;24.60;3.40;;;;;;;2.86;87.63;101137.56;2079005;28;20045;-71
2022/02/07 06:11:12;;;;;;;25.23;2.20;;;;;;;2.92;87.17;101142.03;2063435;28;20119;-71
2022/02/07 06:12:15;;;;;;;22.48;2.97;;;;;;;2.86;87.60;101136.69;2062646;28;20795;-71
2022/02/07 06:13:18;;;;;;;25.40;4.03;;;;;;;2.88;87.21;101150.81;2055350;28;20205;-70
2022/02/07 06:14:25;;;;;;;13.63;2.10;;;;;;;2.87;87.43;101149.00;2055906;28;20047;-72
2022/02/07 06:15:30;;;;;;;21.33;2.72;;;;;;;2.85;88.58;101156.97;2072071;28;20042;-71
2022/02/07 06:16:32;;;;;;;22.08;3.20;;;;;;;2.85;87.37;101156.97;2078957;28;20044;-72
2022/02/07 06:17:37;;;;;;;22.23;2.58;;;;;;;2.85;87.54;101158.69;2079340;28;20052;-72
2022/02/07 06:18:40;;;;;;;16.15;2.58;;;;;;;2.91;88.02;101166.72;2071349;28;20767;-71
2022/02/07 06:19:43;;;;;;;19.77;2.28;;;;;;;3.01;86.77;101168.56;2063371;28;20051;-71
2022/02/07 06:20:48;;;;;;;24.48;2.88;;;;;;;3.00;86.93;101166.81;2062985;28;20070;-72
2022/02/07 06:21:52;;;;;;;18.70;2.20;;;;;;;3.08;86.63;101163.38;2047361;28;20047;-71
2022/02/07 06:22:54;;;;;;;27.13;2.45;;;;;;;3.01;86.19;101168.56;2055743;28;20047;-71
2022/02/07 06:23:56;;;;;;;19.55;2.15;;;;;;;2.98;87.14;101171.22;2062915;28;20058;-73
2022/02/07 06:24:59;;;;;;;18.85;1.73;;;;;;;3.01;87.45;101181.81;2063274;28;20039;-71
2022/02/07 06:26:01;;;;;;;20.45;2.38;;;;;;;3.02;87.44;101175.66;2055110;28;20050;-72
2022/02/07 06:27:05;;;;;;;19.00;2.00;;;;;;;3.02;87.10;101180.94;2055208;28;20039;-71
2022/02/07 06:28:06;;;;;;;18.00;2.10;;;;;;;3.11;86.24;101179.28;2062270;28;42345;-72
2022/02/07 06:29:20;;;;;;;24.95;2.42;;;;;;;3.10;86.03;101198.66;2071212;28;20951;-71
2022/02/07 06:30:26;;;;;;;22.15;2.63;;;;;;;3.09;86.46;101196.88;2069372;28;20045;-72
2022/02/07 06:31:28;;;;;;;22.40;2.05;;;;;;;3.08;86.04;101189.84;2079643;28;20096;-72
2022/02/07 06:32:32;;;;;;;20.13;2.50;;;;;;;2.99;86.07;101194.13;2062546;28;20230;-72
2022/02/07 06:33:36;;;;;;;21.02;3.13;;;;;;;2.94;87.11;101193.19;2064288;28;20046;-70
2022/02/07 06:34:41;;;;;;;24.80;3.08;;;;;;;2.99;86.00;101202.06;2078633;28;20084;-72
2022/02/07 06:35:50;;;;;;;22.63;3.00;;;;;;;2.94;86.81;101202.88;2063436;28;20054;-71
2022/02/07 06:36:52;;;;;;;18.80;2.28;;;;;;;3.01;86.81;101202.97;2071183;28;20051;-71
2022/02/07 06:37:58;;;;;;;18.95;1.98;;;;;;;2.97;86.29;101211.75;2078826;28;20168;-71
2022/02/07 06:39:02;;;;;;;17.67;2.00;;;;;;;2.96;86.25;101217.91;2071194;28;20200;-71
2022/02/07 06:40:06;;;;;;;20.10;2.05;;;;;;;2.88;86.79;101211.63;2079360;28;20805;-71
2022/02/07 06:41:09;;;;;;;21.63;2.42;;;;;;;2.81;86.78;101215.94;2078660;28;20042;-71
2022/02/07 06:42:11;;;;;;;19.90;1.98;;;;;;;2.78;87.01;101222.94;2070546;28;45165;-71
2022/02/07 06:43:13;;;;;;;19.17;2.28;;;;;;;2.81;86.98;101228.28;2070925;28;20042;-71
2022/02/07 06:44:18;;;;;;;28.33;2.88;;;;;;;2.76;87.13;101219.41;2071314;28;20027;-71